createdAt,value
2022-11-08T00:00:05.605Z,3.42
2022-11-08T00:02:32.478Z,3.28
2022-11-08T00:05:17.823Z,4.18
2022-11-08T00:08:05.925Z,3.60
2022-11-08T00:10:51.303Z,3.72
2022-11-08T00:13:36.852Z,3.60
2022-11-08T00:16:03.777Z,4.45
2022-11-08T00:18:30.425Z,3.10
2022-11-08T00:21:01.258Z,3.53
2022-11-08T00:23:27.968Z,3.15
2022-11-08T00:25:54.980Z,3.25
2022-11-08T00:28:21.640Z,3.30
2022-11-08T00:30:48.314Z,3.60
2022-11-08T00:33:14.997Z,3.10
2022-11-08T00:35:41.619Z,3.50
2022-11-08T00:38:08.254Z,3.55
2022-11-08T00:40:34.992Z,3.15
2022-11-08T00:43:01.766Z,3.35
2022-11-08T00:45:28.507Z,3.15
2022-11-08T00:47:55.142Z,3.13
2022-11-08T00:50:21.803Z,3.00
2022-11-08T00:52:48.472Z,3.00
2022-11-08T00:55:15.198Z,3.33
2022-11-08T00:57:59.024Z,3.25
2022-11-08T01:00:30.067Z,3.15
2022-11-08T01:05:42.228Z,3.15
2022-11-08T01:08:13.170Z,3.10
2022-11-08T01:10:44.421Z,3.00
2022-11-08T01:13:16.283Z,3.00
2022-11-08T01:15:44.936Z,3.42
2022-11-08T01:18:14.397Z,3.58
2022-11-08T01:20:43.067Z,2.88
2022-11-08T01:23:11.019Z,2.83
2022-11-08T01:25:43.112Z,2.88
2022-11-08T01:28:12.991Z,3.47
2022-11-08T01:33:08.105Z,3.80
2022-11-08T01:35:37.297Z,3.22
2022-11-08T01:38:05.096Z,2.97
2022-11-08T01:40:32.412Z,2.95
2022-11-08T01:43:29.570Z,2.50
2022-11-08T01:46:18.124Z,3.05
2022-11-08T01:48:58.154Z,2.70
2022-11-08T01:51:39.634Z,3.25
2022-11-08T01:54:15.898Z,2.80
2022-11-08T01:56:45.608Z,2.50
2022-11-08T01:59:16.377Z,2.90
2022-11-08T02:01:44.193Z,2.35
2022-11-08T02:04:15.099Z,2.25
2022-11-08T02:06:44.149Z,2.67
2022-11-08T02:09:15.163Z,3.07
2022-11-08T02:11:42.857Z,2.30
2022-11-08T02:14:12.187Z,2.30
2022-11-08T02:16:41.481Z,2.75
2022-11-08T02:19:18.986Z,2.22
2022-11-08T02:21:55.964Z,2.33
2022-11-08T02:24:24.863Z,2.60
2022-11-08T02:26:54.786Z,2.85
2022-11-08T02:32:09.772Z,2.80
2022-11-08T02:34:44.220Z,2.75
2022-11-08T02:37:17.984Z,2.28
2022-11-08T02:39:47.878Z,2.80
2022-11-08T02:44:46.124Z,2.90
2022-11-08T02:47:13.063Z,2.70
2022-11-08T02:49:39.780Z,2.95
2022-11-08T02:52:06.728Z,2.85
2022-11-08T02:54:33.450Z,2.80
2022-11-08T02:57:00.118Z,2.47
2022-11-08T02:59:26.821Z,3.15
2022-11-08T03:01:53.672Z,3.05
2022-11-08T03:04:25.166Z,2.92
2022-11-08T03:06:54.375Z,3.10
2022-11-08T03:09:21.053Z,2.75
2022-11-08T03:11:47.745Z,2.85
2022-11-08T03:14:14.433Z,2.80
2022-11-08T03:16:41.145Z,2.92
2022-11-08T03:19:07.869Z,3.20
2022-11-08T03:21:36.522Z,3.28
2022-11-08T03:24:03.661Z,3.30
2022-11-08T03:26:32.289Z,3.00
2022-11-08T03:28:58.953Z,3.00
2022-11-08T03:31:27.801Z,3.53
2022-11-08T03:33:54.488Z,3.28
2022-11-08T03:36:21.244Z,3.25
2022-11-08T03:38:50.794Z,3.40
2022-11-08T03:41:17.433Z,3.47
2022-11-08T03:43:44.069Z,3.22
2022-11-08T03:46:15.334Z,3.08
2022-11-08T03:48:42.056Z,2.80
2022-11-08T03:51:08.754Z,3.83
2022-11-08T03:53:37.893Z,3.65
2022-11-08T03:56:07.325Z,3.40
2022-11-08T03:58:35.449Z,3.10
2022-11-08T04:01:06.488Z,2.70
2022-11-08T04:03:33.254Z,2.85
2022-11-08T04:06:01.371Z,3.42
2022-11-08T04:08:29.276Z,3.05
2022-11-08T04:11:21.731Z,3.13
2022-11-08T04:14:07.141Z,2.83
2022-11-08T04:16:34.063Z,3.25
2022-11-08T04:19:19.292Z,2.97
2022-11-08T04:21:48.348Z,3.00
2022-11-08T04:24:15.070Z,2.90
2022-11-08T04:26:41.718Z,2.90
2022-11-08T04:29:09.584Z,3.63
2022-11-08T04:31:36.448Z,3.10
2022-11-08T04:34:05.940Z,3.08
2022-11-08T04:36:35.937Z,3.17
2022-11-08T04:41:31.650Z,3.05
2022-11-08T04:43:58.428Z,3.03
2022-11-08T04:46:31.472Z,3.00
2022-11-08T04:48:59.862Z,3.10
2022-11-08T04:51:27.908Z,2.75
2022-11-08T04:53:59.036Z,2.80
2022-11-08T04:56:30.535Z,2.78
2022-11-08T04:59:00.914Z,2.92
2022-11-08T05:01:30.306Z,2.50
2022-11-08T05:03:58.216Z,1.88
2022-11-08T05:06:27.801Z,2.90
2022-11-08T05:08:58.567Z,2.50
2022-11-08T05:11:27.220Z,2.83
2022-11-08T05:13:54.205Z,2.47
2022-11-08T05:16:23.798Z,2.60
2022-11-08T05:18:50.823Z,2.95
2022-11-08T05:21:40.533Z,2.72
2022-11-08T05:24:09.852Z,3.00
2022-11-08T05:26:38.440Z,2.42
2022-11-08T05:29:05.927Z,2.88
2022-11-08T05:31:34.895Z,2.80
2022-11-08T05:34:03.898Z,2.78
2022-11-08T05:36:30.575Z,2.70
2022-11-08T05:38:59.609Z,2.25
2022-11-08T05:41:26.977Z,3.10
2022-11-08T05:43:57.833Z,2.80
2022-11-08T05:46:24.814Z,2.15
2022-11-08T05:48:52.324Z,2.72
2022-11-08T05:51:19.709Z,2.90
2022-11-08T05:53:48.445Z,2.22
2022-11-08T05:56:18.275Z,2.50
2022-11-08T05:58:45.467Z,3.25
2022-11-08T06:01:15.288Z,1.75
2022-11-08T06:03:42.237Z,2.60
2022-11-08T06:06:14.998Z,2.00
2022-11-08T06:08:49.000Z,2.05
2022-11-08T06:11:25.182Z,2.30
2022-11-08T06:13:54.875Z,2.63
2022-11-08T06:16:23.053Z,1.60
2022-11-08T06:18:54.466Z,2.20
2022-11-08T06:21:26.268Z,2.00
2022-11-08T06:23:54.564Z,2.30
2022-11-08T06:26:25.108Z,2.22
2022-11-08T06:28:51.764Z,2.08
2022-11-08T06:31:18.434Z,2.15
2022-11-08T06:33:47.674Z,1.83
2022-11-08T06:36:14.366Z,1.90
2022-11-08T06:38:43.394Z,1.90
2022-11-08T06:41:19.758Z,1.90
2022-11-08T06:43:46.950Z,2.08
2022-11-08T06:46:13.618Z,2.20
2022-11-08T06:48:40.542Z,1.90
2022-11-08T06:51:09.533Z,1.90
2022-11-08T06:53:36.348Z,1.80
2022-11-08T06:56:03.099Z,2.00
2022-11-08T06:58:30.734Z,1.70
2022-11-08T07:00:57.740Z,1.80
2022-11-08T07:03:24.448Z,1.80
2022-11-08T07:05:53.366Z,1.55
2022-11-08T07:08:23.751Z,1.77
2022-11-08T07:10:51.127Z,1.63
2022-11-08T07:13:18.059Z,1.58
2022-11-08T07:15:45.300Z,1.60
2022-11-08T07:18:13.961Z,1.58
2022-11-08T07:20:43.496Z,1.85
2022-11-08T07:23:11.862Z,1.70
2022-11-08T07:25:38.874Z,1.60
2022-11-08T07:28:07.655Z,1.60
2022-11-08T07:30:35.683Z,1.77
2022-11-08T07:33:03.130Z,1.80
2022-11-08T07:35:29.932Z,1.70
2022-11-08T07:37:56.954Z,1.95
2022-11-08T07:40:23.990Z,1.80
2022-11-08T07:43:10.620Z,1.90
2022-11-08T07:45:40.605Z,1.80
2022-11-08T07:50:40.686Z,1.80
2022-11-08T07:53:07.954Z,2.03
2022-11-08T07:55:38.939Z,2.10
2022-11-08T07:58:08.745Z,3.75
2022-11-08T08:03:04.769Z,2.83
2022-11-08T08:05:35.949Z,3.85
2022-11-08T08:08:03.778Z,2.50
2022-11-08T08:10:31.560Z,2.60
2022-11-08T08:12:58.592Z,2.85
2022-11-08T08:15:25.998Z,2.05
2022-11-08T08:17:52.743Z,2.80
2022-11-08T08:20:19.496Z,2.55
2022-11-08T08:22:52.900Z,1.40
2022-11-08T08:25:22.272Z,1.60
2022-11-08T08:27:56.795Z,2.00
2022-11-08T08:30:24.893Z,1.60
2022-11-08T08:33:14.726Z,2.20
2022-11-08T08:35:39.596Z,1.55
2022-11-08T08:38:07.135Z,1.90
2022-11-08T08:40:34.354Z,1.77
2022-11-08T08:43:05.139Z,1.50
2022-11-08T08:45:35.343Z,1.50
2022-11-08T08:48:02.215Z,1.50
2022-11-08T08:50:31.206Z,1.40
2022-11-08T08:53:03.913Z,1.40
2022-11-08T08:55:35.150Z,1.65
2022-11-08T08:58:01.833Z,1.65
2022-11-08T09:03:17.806Z,1.40
2022-11-08T09:05:47.802Z,1.45
2022-11-08T09:08:15.119Z,1.50
2022-11-08T09:10:41.874Z,1.50
2022-11-08T09:13:08.799Z,1.83
2022-11-08T09:15:35.569Z,1.40
2022-11-08T09:18:02.456Z,1.73
2022-11-08T09:20:31.429Z,1.60
2022-11-08T09:23:02.984Z,1.55
2022-11-08T09:25:32.156Z,1.50
2022-11-08T09:27:58.849Z,1.75
2022-11-08T09:30:26.586Z,1.67
2022-11-08T09:33:00.741Z,1.70
2022-11-08T09:35:29.189Z,1.63
2022-11-08T09:38:01.238Z,1.90
2022-11-08T09:40:31.287Z,1.63
2022-11-08T09:43:06.994Z,1.77
2022-11-08T09:45:46.343Z,1.90
2022-11-08T09:48:34.033Z,2.28
2022-11-08T09:51:10.141Z,1.75
2022-11-08T09:53:52.096Z,1.70
2022-11-08T09:56:24.019Z,1.55
2022-11-08T09:58:54.272Z,1.70
2022-11-08T10:01:26.870Z,1.80
2022-11-08T10:03:57.166Z,1.58
2022-11-08T10:06:46.831Z,2.45
2022-11-08T10:09:40.426Z,2.00
2022-11-08T10:12:22.425Z,1.80
2022-11-08T10:15:07.663Z,1.65
2022-11-08T10:18:02.216Z,1.80
2022-11-08T10:20:37.797Z,1.65
2022-11-08T10:23:19.830Z,1.60
2022-11-08T10:25:54.169Z,1.83
2022-11-08T10:28:36.076Z,1.73
2022-11-08T10:31:06.343Z,1.80
2022-11-08T10:33:43.990Z,2.10
2022-11-08T10:36:20.970Z,1.70
2022-11-08T10:39:01.973Z,1.90
2022-11-08T10:41:45.120Z,2.00
2022-11-08T10:44:11.714Z,1.58
2022-11-08T10:46:43.357Z,1.80
2022-11-08T10:49:48.517Z,1.60
2022-11-08T10:52:38.306Z,1.65
2022-11-08T10:57:39.189Z,2.00
2022-11-08T11:00:35.554Z,1.75
2022-11-08T11:03:11.334Z,2.10
2022-11-08T11:05:42.302Z,2.10
2022-11-08T11:08:08.982Z,1.83
2022-11-08T11:10:44.644Z,1.92
2022-11-08T11:16:04.444Z,1.88
2022-11-08T11:18:35.095Z,2.00
2022-11-08T11:21:02.122Z,2.10
2022-11-08T11:23:46.026Z,1.63
2022-11-08T11:26:32.015Z,1.45
2022-11-08T11:29:04.931Z,1.83
2022-11-08T11:31:43.075Z,1.60
2022-11-08T11:34:18.935Z,1.52
2022-11-08T11:37:01.837Z,2.28
2022-11-08T11:39:45.918Z,2.05
2022-11-08T11:45:42.690Z,1.80
2022-11-08T11:48:18.030Z,1.75
2022-11-08T11:50:49.540Z,1.63
2022-11-08T11:53:22.763Z,1.98
2022-11-08T11:56:11.412Z,1.85
2022-11-08T11:59:04.879Z,1.58
2022-11-08T12:01:43.683Z,1.60
2022-11-08T12:04:15.762Z,1.60
2022-11-08T12:07:05.371Z,1.77
2022-11-08T12:09:38.938Z,1.52
2022-11-08T12:12:32.933Z,2.15
2022-11-08T12:15:25.537Z,1.90
2022-11-08T12:18:25.682Z,2.00
2022-11-08T12:21:12.572Z,1.60
2022-11-08T12:23:43.242Z,2.03
2022-11-08T12:26:28.267Z,1.50
2022-11-08T12:29:24.011Z,1.50
2022-11-08T12:31:56.343Z,2.00
2022-11-08T12:35:09.376Z,1.90
2022-11-08T12:38:04.767Z,1.80
2022-11-08T12:40:54.763Z,2.15
2022-11-08T12:43:26.915Z,1.65
2022-11-08T12:46:16.427Z,1.90
2022-11-08T12:48:52.401Z,1.83
2022-11-08T12:51:22.170Z,2.08
2022-11-08T12:56:36.063Z,1.77
2022-11-08T12:59:04.281Z,1.90
2022-11-08T13:01:31.641Z,1.75
2022-11-08T13:04:33.211Z,1.73
2022-11-08T13:07:09.608Z,1.85
2022-11-08T13:10:02.347Z,1.90
2022-11-08T13:12:35.750Z,2.13
2022-11-08T13:15:14.036Z,3.15
2022-11-08T13:17:40.862Z,1.85
2022-11-08T13:20:37.759Z,2.05
2022-11-08T13:23:12.144Z,1.73
2022-11-08T13:25:39.797Z,1.35
2022-11-08T13:28:33.756Z,1.40
2022-11-08T13:31:09.000Z,1.80
2022-11-08T13:33:40.983Z,1.83
2022-11-08T13:36:07.623Z,1.77
2022-11-08T13:38:56.966Z,1.90
2022-11-08T13:41:27.955Z,1.75
2022-11-08T13:43:55.955Z,1.80
2022-11-08T13:46:29.695Z,1.45
2022-11-08T13:49:05.933Z,1.92
2022-11-08T13:51:33.696Z,1.73
2022-11-08T13:54:20.315Z,1.55
2022-11-08T13:56:51.368Z,1.80
2022-11-08T13:59:30.383Z,1.52
2022-11-08T14:02:25.994Z,2.05
2022-11-08T14:05:07.992Z,1.70
2022-11-08T14:07:46.649Z,1.60
2022-11-08T14:10:39.872Z,2.03
2022-11-08T14:13:15.334Z,1.83
2022-11-08T14:15:58.110Z,1.90
2022-11-08T14:18:28.872Z,1.70
2022-11-08T14:20:58.274Z,1.88
2022-11-08T14:23:31.943Z,1.90
2022-11-08T14:26:00.536Z,1.58
2022-11-08T14:28:36.705Z,1.50
2022-11-08T14:31:25.326Z,1.77
2022-11-08T14:33:52.158Z,1.80
2022-11-08T14:36:20.117Z,1.52
2022-11-08T14:39:03.581Z,2.50
2022-11-08T14:41:32.574Z,1.58
2022-11-08T14:44:01.624Z,1.70
2022-11-08T14:46:40.971Z,1.42
2022-11-08T14:49:22.311Z,1.90
2022-11-08T14:52:12.909Z,1.80
2022-11-08T14:54:43.231Z,2.00
2022-11-08T14:57:36.806Z,1.70
2022-11-08T15:00:21.432Z,1.45
2022-11-08T15:02:54.434Z,1.55
2022-11-08T15:05:40.981Z,1.60
2022-11-08T15:08:25.785Z,1.90
2022-11-08T15:11:03.166Z,1.50
2022-11-08T15:13:50.689Z,1.38
2022-11-08T15:16:18.122Z,1.30
2022-11-08T15:18:47.646Z,1.38
2022-11-08T15:21:31.789Z,1.25
2022-11-08T15:24:18.526Z,1.60
2022-11-08T15:27:09.993Z,1.60
2022-11-08T15:30:05.820Z,1.58
2022-11-08T15:32:38.211Z,1.40
2022-11-08T15:35:19.281Z,1.95
2022-11-08T15:37:49.183Z,1.52
2022-11-08T15:40:31.776Z,1.50
2022-11-08T15:43:02.182Z,1.90
2022-11-08T15:45:35.699Z,1.55
2022-11-08T15:48:22.060Z,1.38
2022-11-08T15:50:49.883Z,1.50
2022-11-08T15:53:19.113Z,1.95
2022-11-08T15:55:53.440Z,1.92
2022-11-08T15:58:30.753Z,1.70
2022-11-08T16:00:59.783Z,1.75
2022-11-08T16:03:29.440Z,1.98
2022-11-08T16:05:56.465Z,1.70
2022-11-08T16:08:23.837Z,1.95
2022-11-08T16:10:59.276Z,1.75
2022-11-08T16:13:44.044Z,1.38
2022-11-08T16:16:17.539Z,1.60
2022-11-08T16:18:47.190Z,1.80
2022-11-08T16:21:14.561Z,1.58
2022-11-08T16:23:42.109Z,1.52
2022-11-08T16:26:15.075Z,1.80
2022-11-08T16:28:44.402Z,1.85
2022-11-08T16:31:17.826Z,1.70
2022-11-08T16:33:45.910Z,2.10
2022-11-08T16:36:21.137Z,1.90
2022-11-08T16:39:01.459Z,1.80
2022-11-08T16:41:30.467Z,2.10
2022-11-08T16:43:58.220Z,1.50
2022-11-08T16:46:24.921Z,1.60
2022-11-08T16:48:59.095Z,1.55
2022-11-08T16:51:25.920Z,1.90
2022-11-08T16:53:53.428Z,1.60
2022-11-08T16:56:20.265Z,1.80
2022-11-08T16:58:46.979Z,1.90
2022-11-08T17:01:17.227Z,1.77
2022-11-08T17:03:44.110Z,1.63
2022-11-08T17:06:16.594Z,1.52
2022-11-08T17:08:44.105Z,1.45
2022-11-08T17:11:19.772Z,1.85
2022-11-08T17:13:49.582Z,1.60
2022-11-08T17:18:52.966Z,2.05
2022-11-08T17:24:07.943Z,1.90
2022-11-08T17:26:34.677Z,1.77
2022-11-08T17:29:05.087Z,1.88
2022-11-08T17:31:34.279Z,1.80
2022-11-08T17:34:02.092Z,1.63
2022-11-08T17:36:31.325Z,2.10
2022-11-08T17:38:58.035Z,2.05
2022-11-08T17:41:27.424Z,1.90
2022-11-08T17:43:54.071Z,2.40
2022-11-08T17:46:20.804Z,2.45
2022-11-08T17:48:47.519Z,2.25
2022-11-08T17:51:16.581Z,2.03
2022-11-08T17:53:43.709Z,2.00
2022-11-08T17:56:11.950Z,1.90
2022-11-08T17:58:39.782Z,1.85
2022-11-08T18:01:07.094Z,2.00
2022-11-08T18:03:36.338Z,1.90
2022-11-08T18:06:06.132Z,2.05
2022-11-08T18:11:00.675Z,1.85
2022-11-08T18:13:30.649Z,1.90
2022-11-08T18:16:18.555Z,1.77
2022-11-08T18:18:46.489Z,2.17
2022-11-08T18:21:19.596Z,2.58
2022-11-08T18:23:47.973Z,2.03
2022-11-08T18:26:16.068Z,1.98
2022-11-08T18:28:43.763Z,2.03
2022-11-08T18:31:16.568Z,1.95
2022-11-08T18:33:44.043Z,1.60
2022-11-08T18:36:22.843Z,1.77
2022-11-08T18:38:51.342Z,1.77
2022-11-08T18:41:26.535Z,1.70
2022-11-08T18:43:53.919Z,1.70
2022-11-08T18:46:25.089Z,1.67
2022-11-08T18:48:51.858Z,1.60
2022-11-08T18:51:20.266Z,1.60
2022-11-08T18:53:46.959Z,1.70
2022-11-08T18:56:14.737Z,1.63
2022-11-08T18:58:43.394Z,1.80
2022-11-08T19:01:10.137Z,2.17
2022-11-08T19:03:37.135Z,2.00
2022-11-08T19:06:09.509Z,1.90
2022-11-08T19:08:41.997Z,2.03
2022-11-08T19:11:12.961Z,2.03
2022-11-08T19:13:43.365Z,1.92
2022-11-08T19:16:14.066Z,1.83
2022-11-08T19:18:43.980Z,1.90
2022-11-08T19:21:15.234Z,1.98
2022-11-08T19:23:42.375Z,2.17
2022-11-08T19:26:18.329Z,1.83
2022-11-08T19:28:46.104Z,1.90
2022-11-08T19:31:18.497Z,2.05
2022-11-08T19:33:48.784Z,2.00
2022-11-08T19:36:18.410Z,2.05
2022-11-08T19:38:47.826Z,1.88
2022-11-08T19:41:16.901Z,1.98
2022-11-08T19:43:44.519Z,2.30
2022-11-08T19:46:17.956Z,2.08
2022-11-08T19:48:49.346Z,1.90
2022-11-08T19:51:23.247Z,2.00
2022-11-08T19:54:00.195Z,2.08
2022-11-08T19:56:57.832Z,1.92
2022-11-08T19:59:19.386Z,1.70
2022-11-08T20:01:46.920Z,1.95
2022-11-08T20:04:14.763Z,1.80
2022-11-08T20:06:42.314Z,2.13
2022-11-08T20:09:11.879Z,2.17
2022-11-08T20:11:40.943Z,2.30
2022-11-08T20:14:08.881Z,2.05
2022-11-08T20:16:40.017Z,2.67
2022-11-08T20:19:11.464Z,2.35
2022-11-08T20:21:42.141Z,1.67
2022-11-08T20:24:10.584Z,1.77
2022-11-08T20:26:38.541Z,1.67
2022-11-08T20:29:07.251Z,1.67
2022-11-08T20:31:35.033Z,2.10
2022-11-08T20:34:05.620Z,1.98
2022-11-08T20:36:35.245Z,1.90
2022-11-08T20:39:06.580Z,2.33
2022-11-08T20:41:37.277Z,2.00
2022-11-08T20:44:05.637Z,1.80
2022-11-08T20:46:33.120Z,2.17
2022-11-08T20:49:00.596Z,1.75
2022-11-08T20:51:28.738Z,1.83
2022-11-08T20:53:56.938Z,1.63
2022-11-08T20:56:27.293Z,1.70
2022-11-08T20:58:56.613Z,1.70
2022-11-08T21:01:28.022Z,1.77
2022-11-08T21:03:55.845Z,2.08
2022-11-08T21:06:24.806Z,1.70
2022-11-08T21:09:05.588Z,1.60
2022-11-08T21:11:39.481Z,1.90
2022-11-08T21:14:06.432Z,1.80
2022-11-08T21:16:52.838Z,1.80
2022-11-08T21:19:23.770Z,1.70
2022-11-08T21:22:10.406Z,1.67
2022-11-08T21:24:39.416Z,1.85
2022-11-08T21:27:06.130Z,1.52
2022-11-08T21:29:35.089Z,1.90
2022-11-08T21:32:04.211Z,1.50
2022-11-08T21:34:33.066Z,1.63
2022-11-08T21:37:02.785Z,1.27
2022-11-08T21:41:56.210Z,1.52
2022-11-08T21:44:23.035Z,1.38
2022-11-08T21:46:51.912Z,1.52
2022-11-08T21:49:20.977Z,1.37
2022-11-08T21:51:47.651Z,1.40
2022-11-08T21:54:15.333Z,1.50
2022-11-08T21:56:41.984Z,1.40
2022-11-08T21:59:08.842Z,1.70
2022-11-08T22:01:35.700Z,1.10
2022-11-08T22:04:04.921Z,1.10
2022-11-08T22:06:32.183Z,1.35
2022-11-08T22:08:59.010Z,1.50
2022-11-08T22:11:25.907Z,1.35
2022-11-08T22:13:55.466Z,1.50
2022-11-08T22:16:22.324Z,1.40
2022-11-08T22:19:04.744Z,1.25
2022-11-08T22:21:38.217Z,1.30
2022-11-08T22:24:05.827Z,1.35
2022-11-08T22:26:32.585Z,1.80
2022-11-08T22:28:59.574Z,1.35
2022-11-08T22:31:26.685Z,1.50
2022-11-08T22:33:53.331Z,1.80
2022-11-08T22:36:20.219Z,1.63
2022-11-08T22:38:47.362Z,1.90
2022-11-08T22:41:21.779Z,1.50
2022-11-08T22:43:49.406Z,1.70
2022-11-08T22:46:17.060Z,2.17
2022-11-08T22:48:44.055Z,1.40
2022-11-08T22:51:13.817Z,1.60
2022-11-08T22:56:13.131Z,1.33
2022-11-08T22:58:40.233Z,1.73
2022-11-08T23:01:11.684Z,1.35
2022-11-08T23:03:38.599Z,1.63
2022-11-08T23:06:08.943Z,1.63
2022-11-08T23:08:35.760Z,1.38
2022-11-08T23:11:21.237Z,1.60
2022-11-08T23:14:08.538Z,1.80
2022-11-08T23:16:37.776Z,1.90
2022-11-08T23:19:27.010Z,1.83
2022-11-08T23:22:13.385Z,1.90
2022-11-08T23:24:42.241Z,1.77
2022-11-08T23:27:28.660Z,1.63
2022-11-08T23:30:16.678Z,1.42
2022-11-08T23:32:45.428Z,1.40
2022-11-08T23:35:12.758Z,1.52
2022-11-08T23:37:42.279Z,1.90
2022-11-08T23:40:28.937Z,1.60
2022-11-08T23:43:30.703Z,1.70
2022-11-08T23:45:58.218Z,1.73
2022-11-08T23:48:26.589Z,1.65
2022-11-08T23:50:54.957Z,1.73
2022-11-08T23:53:25.086Z,1.60
2022-11-08T23:55:52.783Z,2.05
2022-11-08T23:58:19.882Z,1.52
